Time;durP1;ratioP1;P1;durP2;ratioP2;P2;SDS_P1;SDS_P2;PMS_P1;PMS_P2;Temp;Humidity;BMP_temperature;BMP_pressure;BME280_temperature;BME280_humidity;BME280_pressure;Samples;Min_cycle;Max_cycle;Signal;HPM_P1;HPM_P2
2022/08/25 00:01:54;;;;;;;5.63;5.05;;;20.20;99.90;;;;;;5056403;28;20036;-26
2022/08/25 00:04:20;;;;;;;5.93;5.43;;;20.20;99.90;;;;;;5073453;28;20033;-26
2022/08/25 00:06:47;;;;;;;6.80;5.65;;;20.20;99.90;;;;;;5056569;28;20472;-25
2022/08/25 00:09:16;;;;;;;5.75;5.25;;;20.10;99.90;;;;;;5073205;28;20044;-27
2022/08/25 00:11:43;;;;;;;5.80;5.28;;;20.10;99.90;;;;;;5062504;28;20506;-27
2022/08/25 00:14:13;;;;;;;6.25;5.68;;;20.10;99.90;;;;;;5073225;28;20045;-25
2022/08/25 00:16:39;;;;;;;5.95;5.25;;;20.00;99.90;;;;;;5053355;28;20040;-29
2022/08/25 00:19:09;;;;;;;6.47;5.53;;;20.00;99.90;;;;;;5069882;28;20132;-25
2022/08/25 00:21:35;;;;;;;6.15;5.65;;;20.00;99.90;;;;;;5073038;28;20043;-26
2022/08/25 00:24:01;;;;;;;5.95;5.40;;;20.00;99.90;;;;;;5056113;28;20478;-26
2022/08/25 00:26:29;;;;;;;7.13;5.47;;;19.90;99.90;;;;;;5056323;28;20521;-26
2022/08/25 00:28:54;;;;;;;6.43;5.88;;;19.90;99.90;;;;;;5056256;28;20032;-25
2022/08/25 00:31:24;;;;;;;5.68;5.18;;;19.90;99.90;;;;;;5056099;28;20044;-26
2022/08/25 00:33:51;;;;;;;5.88;5.25;;;19.90;99.90;;;;;;5065103;28;20064;-26
2022/08/25 00:36:18;;;;;;;6.00;5.28;;;19.80;99.90;;;;;;5055912;28;20040;-26
2022/08/25 00:38:46;;;;;;;6.15;5.65;;;19.80;99.90;;;;;;5055998;28;20405;-25
2022/08/25 00:41:19;;;;;;;6.63;5.68;;;19.70;99.90;;;;;;5073611;28;20486;-25
2022/08/25 00:43:56;;;;;;;;;;;19.70;99.90;;;;;;5072774;28;20122;-25
2022/08/25 00:46:26;;;;;;;5.63;5.07;;;19.60;99.90;;;;;;5055619;28;19952;-26
2022/08/25 00:49:03;;;;;;;6.35;5.60;;;19.60;99.90;;;;;;5071283;28;20055;-28
2022/08/25 00:51:39;;;;;;;5.70;5.20;;;19.60;99.90;;;;;;5073835;28;20490;-26
2022/08/25 00:54:07;;;;;;;5.30;4.90;;;19.50;99.90;;;;;;5042439;28;20040;-25
2022/08/25 00:56:34;;;;;;;6.15;5.55;;;19.50;99.90;;;;;;5055841;28;20530;-25
2022/08/25 00:59:02;;;;;;;7.07;5.70;;;19.40;99.90;;;;;;5057789;28;20039;-25
2022/08/25 01:01:29;;;;;;;7.47;5.38;;;19.40;99.90;;;;;;5067580;28;20521;-27
2022/08/25 01:03:55;;;;;;;7.18;4.68;;;19.40;99.90;;;;;;5066036;28;20060;-26
2022/08/25 01:06:22;;;;;;;5.85;5.30;;;19.40;99.90;;;;;;5061646;28;20478;-26
2022/08/25 01:08:48;;;;;;;5.70;5.18;;;19.40;99.90;;;;;;5065726;28;20094;-28
2022/08/25 01:11:15;;;;;;;4.97;4.50;;;19.40;99.90;;;;;;5070974;28;20120;-26
2022/08/25 01:13:44;;;;;;;5.30;4.80;;;19.30;99.90;;;;;;5055060;28;20064;-25
2022/08/25 01:16:13;;;;;;;5.68;4.90;;;19.30;99.90;;;;;;5057937;28;20028;-25
2022/08/25 01:18:55;;;;;;;5.97;5.30;;;19.30;99.90;;;;;;5055026;28;20036;-27
2022/08/25 01:21:24;;;;;;;6.50;4.95;;;19.30;99.90;;;;;;5068856;28;20391;-26
2022/08/25 01:23:51;;;;;;;6.00;5.28;;;19.30;99.90;;;;;;5066188;28;20486;-25
2022/08/25 01:26:35;;;;;;;6.03;5.50;;;19.30;99.90;;;;;;5073775;28;20036;-26
2022/08/25 01:29:24;;;;;;;5.65;5.05;;;19.20;99.90;;;;;;5055275;28;20115;-25
2022/08/25 01:31:57;;;;;;;5.05;4.65;;;19.20;99.90;;;;;;5055211;28;20113;-25
2022/08/25 01:34:25;;;;;;;4.82;4.40;;;19.20;99.90;;;;;;5054757;28;20082;-25
2022/08/25 01:36:51;;;;;;;5.85;4.55;;;19.20;99.90;;;;;;5051575;28;20394;-25
2022/08/25 01:39:17;;;;;;;5.43;4.82;;;19.10;99.90;;;;;;5071811;28;20039;-25
2022/08/25 01:42:01;;;;;;;8.25;5.47;;;19.10;99.90;;;;;;5071420;28;20456;-26
2022/08/25 01:44:27;;;;;;;4.60;4.20;;;19.10;99.90;;;;;;5055988;28;20037;-25
2022/08/25 01:46:53;;;;;;;5.05;4.55;;;19.00;99.90;;;;;;5055446;28;20048;-30
2022/08/25 01:49:20;;;;;;;5.70;5.07;;;19.00;99.90;;;;;;5071062;28;20106;-32
2022/08/25 01:51:55;;;;;;;5.50;4.82;;;19.00;99.90;;;;;;5071724;28;20100;-25
2022/08/25 01:54:21;;;;;;;5.30;4.80;;;18.90;99.90;;;;;;5055335;28;20041;-25
2022/08/25 01:56:47;;;;;;;5.53;5.03;;;18.90;99.90;;;;;;5072871;28;20451;-25
2022/08/25 01:59:20;;;;;;;5.55;5.05;;;18.90;99.90;;;;;;5054508;28;20457;-26
2022/08/25 02:01:46;;;;;;;6.32;5.10;;;18.90;99.90;;;;;;5071151;28;20032;-26
2022/08/25 02:04:12;;;;;;;5.35;4.85;;;18.80;99.90;;;;;;5071189;28;20039;-25
2022/08/25 02:06:39;;;;;;;5.47;4.97;;;18.80;99.90;;;;;;5071225;28;20040;-26
2022/08/25 02:09:12;;;;;;;5.45;4.95;;;18.80;99.90;;;;;;5071437;28;20452;-28
2022/08/25 02:11:40;;;;;;;6.43;4.90;;;18.80;99.90;;;;;;5071614;28;20447;-27
2022/08/25 02:14:08;;;;;;;7.07;5.22;;;18.70;99.90;;;;;;5070860;28;20047;-25
2022/08/25 02:16:36;;;;;;;5.70;5.13;;;18.70;99.90;;;;;;5070882;28;20036;-26
2022/08/25 02:19:05;;;;;;;5.63;5.05;;;18.70;99.90;;;;;;5071095;28;20037;-26
2022/08/25 02:21:32;;;;;;;4.88;4.45;;;18.70;99.90;;;;;;5054380;28;20502;-27
2022/08/25 02:23:58;;;;;;;6.93;4.80;;;18.70;99.90;;;;;;5070748;28;20040;-26
2022/08/25 02:26:24;;;;;;;6.03;5.15;;;18.60;99.90;;;;;;5071157;28;20059;-27
2022/08/25 02:28:51;;;;;;;5.07;4.50;;;18.60;99.90;;;;;;5070571;28;20129;-26
2022/08/25 02:31:19;;;;;;;6.68;5.18;;;18.60;99.90;;;;;;5070744;28;20442;-25
2022/08/25 02:33:45;;;;;;;6.05;5.45;;;18.50;99.90;;;;;;5071616;28;20047;-26
2022/08/25 02:36:11;;;;;;;5.88;5.03;;;18.50;99.90;;;;;;5070822;28;20045;-26
2022/08/25 02:38:38;;;;;;;5.50;5.00;;;18.50;99.90;;;;;;5070847;28;20394;-26
2022/08/25 02:41:16;;;;;;;5.20;4.80;;;18.50;99.90;;;;;;5070520;28;20051;-25
2022/08/25 02:43:43;;;;;;;5.22;4.60;;;18.40;99.90;;;;;;5053657;28;20097;-26
2022/08/25 02:46:10;;;;;;;5.50;4.30;;;18.40;99.90;;;;;;5070546;28;20040;-26
2022/08/25 02:48:37;;;;;;;6.18;4.43;;;18.40;99.90;;;;;;5070187;28;20123;-25
2022/08/25 02:51:05;;;;;;;6.10;4.53;;;18.40;99.90;;;;;;5070285;28;20033;-27
2022/08/25 02:53:32;;;;;;;5.00;4.25;;;18.40;99.90;;;;;;5070475;28;20025;-26
2022/08/25 02:55:58;;;;;;;4.82;4.35;;;18.40;99.90;;;;;;5070793;28;20516;-26
2022/08/25 02:58:24;;;;;;;4.97;4.45;;;18.40;99.90;;;;;;5053558;28;20063;-26
2022/08/25 03:00:51;;;;;;;5.40;4.90;;;18.40;99.90;;;;;;5054166;28;20055;-25
2022/08/25 03:03:19;;;;;;;5.88;5.15;;;18.40;99.90;;;;;;5070521;28;20124;-26
2022/08/25 03:05:45;;;;;;;5.40;4.63;;;18.40;99.90;;;;;;5053284;28;20045;-27
2022/08/25 03:08:11;;;;;;;5.80;4.65;;;18.30;99.90;;;;;;5070468;28;20043;-27
2022/08/25 03:10:38;;;;;;;5.18;4.57;;;18.30;99.90;;;;;;5070549;28;20033;-26
2022/08/25 03:13:04;;;;;;;5.70;5.10;;;18.30;99.90;;;;;;5070408;28;20071;-27
2022/08/25 03:15:30;;;;;;;7.43;4.65;;;18.30;99.90;;;;;;5070291;28;20076;-25
2022/08/25 03:17:56;;;;;;;4.97;4.45;;;18.20;99.90;;;;;;5071556;28;20115;-26
2022/08/25 03:20:24;;;;;;;5.15;4.75;;;18.20;99.90;;;;;;5070300;28;20039;-26
2022/08/25 03:22:51;;;;;;;6.85;5.32;;;18.20;99.90;;;;;;5070074;28;20048;-26
2022/08/25 03:28:02;;;;;;;5.68;5.15;;;18.10;99.90;;;;;;5071299;28;20040;-26
2022/08/25 03:30:28;;;;;;;6.65;4.75;;;18.10;99.90;;;;;;5069991;28;20079;-27
2022/08/25 03:32:55;;;;;;;5.65;5.10;;;18.10;99.90;;;;;;5070743;28;20060;-26
2022/08/25 03:35:21;;;;;;;5.40;4.95;;;18.10;99.90;;;;;;5076310;28;20512;-26
2022/08/25 03:37:47;;;;;;;6.57;5.30;;;18.10;99.90;;;;;;5076388;28;20127;-25
2022/08/25 03:40:16;;;;;;;5.43;4.70;;;18.00;99.90;;;;;;5076701;28;20119;-26
2022/08/25 03:42:45;;;;;;;5.93;5.40;;;18.00;99.90;;;;;;5076764;28;20040;-26
2022/08/25 03:45:15;;;;;;;5.70;5.20;;;18.00;99.90;;;;;;5076399;28;20185;-26
2022/08/25 03:47:41;;;;;;;5.47;4.53;;;18.00;99.90;;;;;;5076251;28;20044;-26
2022/08/25 03:50:10;;;;;;;5.22;4.82;;;17.90;99.90;;;;;;5076404;28;20040;-27
2022/08/25 03:52:36;;;;;;;7.63;4.70;;;18.00;99.90;;;;;;5076449;28;20041;-25
2022/08/25 03:55:06;;;;;;;5.78;5.05;;;17.90;99.90;;;;;;5076440;28;20486;-25
2022/08/25 03:57:32;;;;;;;5.28;4.40;;;17.90;99.90;;;;;;5059898;28;20058;-26
2022/08/25 03:59:58;;;;;;;5.88;5.38;;;17.90;99.90;;;;;;5076472;28;20127;-26
2022/08/25 04:02:24;;;;;;;5.63;5.05;;;17.90;99.90;;;;;;5076505;28;20036;-27
2022/08/25 04:04:49;;;;;;;5.70;4.60;;;17.90;99.90;;;;;;5076360;28;20040;-27
2022/08/25 04:07:16;;;;;;;6.63;4.63;;;17.90;99.90;;;;;;5076365;28;20689;-26
2022/08/25 04:09:41;;;;;;;6.55;4.65;;;17.90;99.90;;;;;;5076191;28;20119;-26
2022/08/25 04:12:07;;;;;;;5.38;4.38;;;17.90;99.90;;;;;;5076449;28;20071;-26
2022/08/25 04:14:33;;;;;;;5.57;4.45;;;17.90;99.90;;;;;;5076181;28;20203;-26
2022/08/25 04:16:59;;;;;;;5.45;4.60;;;17.90;99.90;;;;;;5076367;28;20036;-26
2022/08/25 04:19:25;;;;;;;7.20;5.07;;;17.90;99.90;;;;;;5076319;28;20068;-26
2022/08/25 04:21:51;;;;;;;5.38;4.88;;;17.90;99.90;;;;;;5076641;28;20032;-26
2022/08/25 04:24:18;;;;;;;5.65;4.72;;;17.90;99.90;;;;;;5076269;28;20037;-25
2022/08/25 04:26:46;;;;;;;5.60;5.05;;;17.90;99.90;;;;;;5076474;28;20378;-27
2022/08/25 04:29:15;;;;;;;5.22;4.72;;;17.90;99.90;;;;;;5075965;28;20045;-25
2022/08/25 04:31:45;;;;;;;5.22;4.72;;;17.80;99.90;;;;;;5075880;28;20253;-25
2022/08/25 04:34:12;;;;;;;5.65;4.63;;;17.90;99.90;;;;;;5075912;28;20036;-25
2022/08/25 04:36:38;;;;;;;5.93;5.13;;;17.80;99.90;;;;;;5075857;28;20041;-26
2022/08/25 04:39:04;;;;;;;7.28;4.70;;;17.80;99.90;;;;;;5076310;28;20048;-26
2022/08/25 04:41:30;;;;;;;7.38;5.03;;;17.80;99.90;;;;;;5075809;28;20405;-26
2022/08/25 04:43:59;;;;;;;6.40;5.13;;;17.80;99.90;;;;;;5075972;28;20519;-26
2022/08/25 04:46:28;;;;;;;6.55;4.90;;;17.80;99.90;;;;;;5071878;28;20047;-26
2022/08/25 04:48:55;;;;;;;5.82;5.13;;;17.80;99.90;;;;;;5072621;28;20044;-26
2022/08/25 04:51:24;;;;;;;5.47;4.97;;;17.80;99.90;;;;;;5072617;28;20044;-25
2022/08/25 04:53:51;;;;;;;5.53;5.03;;;17.80;99.90;;;;;;5072758;28;20490;-26
2022/08/25 04:56:19;;;;;;;6.38;5.13;;;17.80;99.90;;;;;;5072753;28;20665;-26
2022/08/25 04:58:46;;;;;;;7.18;4.85;;;17.80;99.90;;;;;;5072371;28;20075;-26
2022/08/25 05:01:15;;;;;;;8.35;4.80;;;17.80;99.90;;;;;;5072509;28;20044;-26
2022/08/25 05:03:43;;;;;;;5.32;4.50;;;17.70;99.90;;;;;;5072359;28;20044;-27
2022/08/25 05:06:09;;;;;;;5.47;4.78;;;17.70;99.90;;;;;;5072475;28;20086;-25
2022/08/25 05:08:35;;;;;;;5.43;4.90;;;17.70;99.90;;;;;;5072101;28;20052;-26
2022/08/25 05:11:08;;;;;;;5.82;4.95;;;17.80;99.90;;;;;;5072655;28;20037;-27
2022/08/25 05:13:34;;;;;;;7.15;5.40;;;17.80;99.90;;;;;;5055518;28;20037;-26
2022/08/25 05:16:01;;;;;;;7.85;5.10;;;17.80;99.90;;;;;;5072574;28;20036;-25
2022/08/25 05:18:30;;;;;;;6.20;5.60;;;17.80;99.90;;;;;;5072442;28;20040;-26
2022/08/25 05:21:00;;;;;;;5.90;5.35;;;17.80;99.90;;;;;;5072335;28;20039;-25
2022/08/25 05:23:26;;;;;;;5.82;4.80;;;17.80;99.90;;;;;;5072658;28;20063;-28
2022/08/25 05:25:52;;;;;;;6.07;5.32;;;17.80;99.90;;;;;;5072478;28;20036;-27
2022/08/25 05:28:19;;;;;;;5.65;5.13;;;17.80;99.90;;;;;;5072191;28;20040;-26
2022/08/25 05:30:47;;;;;;;5.85;5.10;;;17.90;99.90;;;;;;5072337;28;20032;-25
2022/08/25 05:33:13;;;;;;;6.80;5.53;;;17.90;99.90;;;;;;5072135;28;20075;-27
2022/08/25 05:35:39;;;;;;;5.50;5.00;;;17.90;99.90;;;;;;5071488;28;20068;-26
2022/08/25 05:38:05;;;;;;;7.25;5.53;;;17.90;99.90;;;;;;5071840;28;20090;-25
2022/08/25 05:40:31;;;;;;;6.00;5.32;;;18.00;99.90;;;;;;5055101;28;20119;-27
2022/08/25 05:42:57;;;;;;;6.95;5.43;;;18.00;99.90;;;;;;5071825;28;20119;-25
2022/08/25 05:45:24;;;;;;;6.35;5.43;;;18.00;99.90;;;;;;5071395;28;20048;-35
2022/08/25 05:47:50;;;;;;;7.00;5.75;;;18.00;99.90;;;;;;5071444;28;20135;-26
2022/08/25 05:50:17;;;;;;;6.00;5.45;;;18.10;99.90;;;;;;5071610;28;20119;-25
2022/08/25 05:52:43;;;;;;;7.43;5.78;;;18.10;99.90;;;;;;5073053;28;20044;-26
2022/08/25 05:55:09;;;;;;;6.20;5.57;;;18.10;99.90;;;;;;5071590;28;20106;-25
2022/08/25 05:57:35;;;;;;;6.57;5.85;;;18.20;99.90;;;;;;5070753;28;20505;-26
2022/08/25 06:00:04;;;;;;;7.43;5.68;;;18.30;99.90;;;;;;5071644;28;20036;-26
2022/08/25 06:02:43;;;;;;;6.70;6.07;;;18.30;99.90;;;;;;5054656;28;20521;-25
2022/08/25 06:05:21;;;;;;;6.05;5.53;;;18.30;99.90;;;;;;5071078;28;20040;-27
2022/08/25 06:07:49;;;;;;;6.30;5.70;;;18.40;99.90;;;;;;5071307;28;20494;-27
2022/08/25 06:10:16;;;;;;;6.80;6.10;;;18.40;99.90;;;;;;5070973;28;20036;-25
2022/08/25 06:12:44;;;;;;;6.88;5.88;;;18.50;99.90;;;;;;5070865;28;20168;-26
2022/08/25 06:15:13;;;;;;;8.18;6.28;;;18.50;99.90;;;;;;5070905;28;20075;-27
2022/08/25 06:17:41;;;;;;;9.65;5.63;;;18.60;99.90;;;;;;5071108;28;20048;-27
2022/08/25 06:20:13;;;;;;;6.85;5.68;;;18.60;99.90;;;;;;5070846;28;20040;-26
2022/08/25 06:22:39;;;;;;;5.88;5.28;;;18.70;99.90;;;;;;5054358;28;20115;-25
2022/08/25 06:25:08;;;;;;;11.05;5.88;;;18.80;99.90;;;;;;5070831;28;20040;-26
2022/08/25 06:27:34;;;;;;;6.70;5.80;;;18.80;99.90;;;;;;5070729;28;20063;-26
2022/08/25 06:30:03;;;;;;;5.97;5.40;;;18.90;99.90;;;;;;5070722;28;20043;-26
2022/08/25 06:32:34;;;;;;;9.13;5.82;;;18.90;99.90;;;;;;5070569;28;20119;-25
2022/08/25 06:35:01;;;;;;;6.57;5.97;;;19.10;99.90;;;;;;5053971;28;20047;-27
2022/08/25 06:37:27;;;;;;;7.13;5.60;;;19.20;99.90;;;;;;5070855;28;20047;-26
2022/08/25 06:39:53;;;;;;;7.60;5.35;;;19.20;99.90;;;;;;5070602;28;20490;-28
2022/08/25 06:42:19;;;;;;;7.50;5.63;;;19.20;99.90;;;;;;5070486;28;20032;-25
2022/08/25 06:44:45;;;;;;;7.38;5.53;;;19.30;99.90;;;;;;5053682;28;20048;-26
2022/08/25 06:47:10;;;;;;;7.63;5.63;;;19.40;99.90;;;;;;5069885;28;20106;-25
2022/08/25 06:49:36;;;;;;;6.70;5.75;;;19.50;99.90;;;;;;5070276;28;20043;-26
2022/08/25 06:52:02;;;;;;;8.63;5.68;;;19.50;99.90;;;;;;5054180;28;20433;-27
2022/08/25 06:54:28;;;;;;;5.75;4.88;;;19.60;99.90;;;;;;5053851;28;20525;-26
2022/08/25 06:56:54;;;;;;;5.60;5.10;;;19.60;99.90;;;;;;5053620;28;20041;-26
2022/08/25 06:59:20;;;;;;;7.75;5.25;;;19.70;99.90;;;;;;5053410;28;20048;-27
2022/08/25 07:01:46;;;;;;;8.25;5.93;;;19.80;99.90;;;;;;5053734;28;20047;-26
2022/08/25 07:04:12;;;;;;;7.38;5.63;;;20.00;99.90;;;;;;5053483;28;20561;-26
2022/08/25 07:06:38;;;;;;;5.93;5.25;;;20.10;99.90;;;;;;5053541;28;20070;-27
2022/08/25 07:09:05;;;;;;;6.32;4.88;;;20.30;99.90;;;;;;5052637;28;20066;-25
2022/08/25 07:11:33;;;;;;;6.25;5.43;;;20.30;99.90;;;;;;5053453;28;20077;-26
2022/08/25 07:14:04;;;;;;;6.35;5.63;;;20.40;99.90;;;;;;5053634;28;20033;-26
2022/08/25 07:16:30;;;;;;;6.32;5.35;;;20.50;99.90;;;;;;5053770;28;20032;-25
2022/08/25 07:18:58;;;;;;;6.88;5.00;;;20.50;99.90;;;;;;5053425;28;20625;-26
2022/08/25 07:21:26;;;;;;;6.88;5.13;;;20.50;99.90;;;;;;5036848;28;20052;-25
2022/08/25 07:23:52;;;;;;;6.22;5.20;;;20.70;99.90;;;;;;5053149;28;20048;-26
2022/08/25 07:26:25;;;;;;;8.60;5.97;;;20.80;99.90;;;;;;5053430;28;20044;-25
2022/08/25 07:28:51;;;;;;;5.97;5.35;;;20.80;99.90;;;;;;5053424;28;20040;-26
2022/08/25 07:31:17;;;;;;;9.02;5.45;;;21.00;99.90;;;;;;5053341;28;20064;-29
2022/08/25 07:35:14;;;;;;;6.30;5.47;;;21.10;99.90;;;;;;5052983;28;20506;-25
2022/08/25 07:36:32;;;;;;;6.38;5.13;;;21.30;99.90;;;;;;5070858;28;20040;-26
2022/08/25 07:38:59;;;;;;;8.80;5.40;;;21.60;99.90;;;;;;5070198;28;20533;-25
2022/08/25 07:41:25;;;;;;;7.07;5.40;;;21.80;99.90;;;;;;5069771;28;20129;-26
2022/08/25 07:43:51;;;;;;;5.60;5.05;;;22.10;99.90;;;;;;5069691;28;20197;-26
2022/08/25 07:46:17;;;;;;;5.85;5.30;;;22.40;99.90;;;;;;5053151;28;20486;-26
2022/08/25 07:48:43;;;;;;;8.20;4.70;;;22.70;99.90;;;;;;5069371;28;20040;-26
2022/08/25 07:51:12;;;;;;;6.32;5.45;;;22.90;99.90;;;;;;5069791;28;20032;-25
2022/08/25 07:53:39;;;;;;;7.03;5.03;;;23.20;99.90;;;;;;5069456;28;20039;-27
2022/08/25 07:56:10;;;;;;;9.85;4.90;;;23.50;99.90;;;;;;5069708;28;20127;-26
2022/08/25 07:58:36;;;;;;;9.88;5.35;;;23.70;99.90;;;;;;5069759;28;20041;-26
2022/08/25 08:01:02;;;;;;;5.68;5.15;;;24.00;99.90;;;;;;5069677;28;20043;-25
2022/08/25 08:03:29;;;;;;;6.43;4.70;;;24.20;99.90;;;;;;5069872;28;20041;-26
2022/08/25 08:05:55;;;;;;;5.95;4.75;;;24.40;99.90;;;;;;5053014;28;20053;-25
2022/08/25 08:08:21;;;;;;;6.70;4.65;;;24.60;99.90;;;;;;5069024;28;20040;-27
2022/08/25 08:10:47;;;;;;;6.10;5.00;;;24.80;99.90;;;;;;5069731;28;20119;-26
2022/08/25 08:13:13;;;;;;;5.82;4.65;;;25.00;99.90;;;;;;5069676;28;20538;-26
2022/08/25 08:15:42;;;;;;;5.22;4.72;;;25.20;99.90;;;;;;5069138;28;20040;-25
2022/08/25 08:18:08;;;;;;;5.18;4.78;;;25.40;99.90;;;;;;5069763;28;20075;-28
2022/08/25 08:20:34;;;;;;;10.85;4.88;;;25.60;99.90;;;;;;5071608;28;20119;-26
2022/08/25 08:23:00;;;;;;;7.25;4.65;;;25.80;99.90;;;;;;5073042;28;20106;-27
2022/08/25 08:25:26;;;;;;;7.68;5.00;;;26.00;99.90;;;;;;5073209;28;20041;-26
2022/08/25 08:27:52;;;;;;;4.90;4.50;;;26.20;99.90;;;;;;5073185;28;20468;-29
2022/08/25 08:30:18;;;;;;;5.80;5.10;;;26.40;99.90;;;;;;5073044;28;20036;-28
2022/08/25 08:32:43;;;;;;;6.38;4.90;;;26.70;99.90;;;;;;5056201;28;20044;-27
2022/08/25 08:35:10;;;;;;;5.53;4.80;;;26.90;99.90;;;;;;5072840;28;20086;-27
2022/08/25 08:37:40;;;;;;;4.90;4.35;;;27.00;99.50;;;;;;5056281;28;20044;-26
2022/08/25 08:40:08;;;;;;;5.85;4.70;;;27.20;98.70;;;;;;5056219;28;20119;-28
2022/08/25 08:42:45;;;;;;;6.95;4.70;;;27.40;99.50;;;;;;5072649;28;20036;-26
2022/08/25 09:34:32;;;;;;;4.82;3.20;;;31.40;66.40;;;;;;5367460;22;20053;-90
2022/08/25 09:36:59;;;;;;;4.40;3.22;;;31.50;62.50;;;;;;4994100;28;20033;-90
2022/08/25 09:39:25;;;;;;;4.30;3.30;;;31.70;61.60;;;;;;4986010;28;20045;-89
2022/08/25 09:41:54;;;;;;;4.40;3.22;;;31.50;59.10;;;;;;4994309;28;20091;-89
2022/08/25 09:44:30;;;;;;;4.30;3.38;;;31.50;58.30;;;;;;5009261;28;20040;-84
2022/08/25 09:47:17;;;;;;;8.13;4.00;;;31.70;61.10;;;;;;4972774;28;20030;-88
2022/08/25 09:50:00;;;;;;;5.47;3.05;;;31.90;58.60;;;;;;4982994;28;20063;-90
2022/08/25 09:52:38;;;;;;;3.28;2.80;;;31.90;56.60;;;;;;4980211;28;20519;-86
2022/08/25 09:55:06;;;;;;;5.15;3.45;;;32.10;53.50;;;;;;4979291;28;20038;-89
2022/08/25 09:57:46;;;;;;;3.38;2.80;;;31.90;55.30;;;;;;4988343;28;20049;-90
2022/08/25 10:00:12;;;;;;;4.07;3.00;;;31.90;51.60;;;;;;4989630;28;20117;-88
2022/08/25 10:02:38;;;;;;;4.50;2.90;;;32.10;54.50;;;;;;4991708;28;20141;-88
2022/08/25 10:05:34;;;;;;;5.03;3.20;;;32.20;54.70;;;;;;4989855;28;20915;-89
2022/08/25 10:08:02;;;;;;;3.65;3.05;;;32.50;54.90;;;;;;4997004;28;20162;-87
2022/08/25 10:10:35;;;;;;;5.85;3.05;;;32.80;54.90;;;;;;4979611;28;20050;-88
2022/08/25 10:13:02;;;;;;;4.63;3.28;;;33.00;52.20;;;;;;4997972;28;20065;-88
2022/08/25 10:15:32;;;;;;;4.53;2.92;;;33.20;51.50;;;;;;4996396;28;20034;-87
2022/08/25 10:18:21;;;;;;;3.40;2.75;;;33.20;50.50;;;;;;4991970;28;20073;-88
2022/08/25 10:21:02;;;;;;;5.47;3.42;;;33.40;49.90;;;;;;4980222;28;20034;-88
2022/08/25 10:23:28;;;;;;;5.13;2.95;;;33.30;48.50;;;;;;4978478;28;20048;-88
2022/08/25 10:25:56;;;;;;;5.38;3.22;;;33.30;48.30;;;;;;4979293;28;20040;-89
2022/08/25 10:28:49;;;;;;;4.00;2.67;;;33.30;47.50;;;;;;4999173;28;20037;-88
2022/08/25 10:31:24;;;;;;;3.97;3.35;;;33.10;47.40;;;;;;5004903;28;20041;-88
2022/08/25 10:34:12;;;;;;;5.90;2.85;;;33.10;46.20;;;;;;4973134;28;20388;-87
2022/08/25 10:37:04;;;;;;;3.13;2.55;;;33.30;43.10;;;;;;4995607;28;20041;-88
2022/08/25 10:39:39;;;;;;;4.40;2.72;;;33.00;42.30;;;;;;4970314;28;20061;-87
2022/08/25 10:42:28;;;;;;;5.63;2.88;;;33.00;45.30;;;;;;4983789;28;20121;-87
2022/08/25 10:48:08;;;;;;;3.85;2.78;;;33.50;47.60;;;;;;4994870;28;20049;-87
2022/08/25 10:50:42;;;;;;;4.75;3.10;;;33.90;46.70;;;;;;4993845;28;20046;-87
2022/08/25 10:53:19;;;;;;;5.15;2.97;;;34.10;46.20;;;;;;4996665;28;20092;-88
2022/08/25 10:55:54;;;;;;;3.60;3.00;;;34.40;45.10;;;;;;4996187;28;20033;-87
2022/08/25 10:58:47;;;;;;;4.72;2.83;;;34.60;45.10;;;;;;4991734;28;20046;-87
2022/08/25 11:01:51;;;;;;;4.20;2.75;;;34.60;45.10;;;;;;4979231;28;20041;-89
2022/08/25 11:04:27;;;;;;;3.83;2.72;;;34.70;45.50;;;;;;4994012;28;20044;-89
2022/08/25 11:07:18;;;;;;;4.32;2.80;;;34.70;43.20;;;;;;4974323;28;20038;-86
2022/08/25 11:09:49;;;;;;;4.68;2.80;;;34.80;43.80;;;;;;4976894;28;20114;-87
2022/08/25 11:12:37;;;;;;;3.17;2.40;;;34.80;44.30;;;;;;4985230;28;20136;-88
2022/08/25 11:15:37;;;;;;;4.07;2.47;;;34.90;46.00;;;;;;4995156;28;20034;-88
2022/08/25 11:18:07;;;;;;;2.97;2.53;;;35.10;46.50;;;;;;4987871;28;20046;-87
2022/08/25 11:20:45;;;;;;;4.78;2.60;;;35.20;42.80;;;;;;4965897;28;20485;-88
2022/08/25 11:23:21;;;;;;;2.95;2.33;;;35.10;42.20;;;;;;4981384;28;20038;-89
2022/08/25 11:26:03;;;;;;;4.03;2.53;;;35.40;44.40;;;;;;4978324;28;20057;-87
2022/08/25 11:28:37;;;;;;;2.40;2.20;;;35.60;44.00;;;;;;4978447;28;20038;-88
2022/08/25 11:31:04;;;;;;;2.60;2.40;;;35.60;41.20;;;;;;4985181;28;20176;-87
2022/08/25 11:33:30;;;;;;;10.13;2.85;;;35.40;39.30;;;;;;4991021;28;20046;-87
2022/08/25 11:36:34;;;;;;;2.97;2.50;;;35.30;38.70;;;;;;5011154;28;20447;-88
2022/08/25 11:39:22;;;;;;;4.15;2.60;;;35.30;39.40;;;;;;4972463;28;20103;-88
2022/08/25 11:42:25;;;;;;;5.13;2.60;;;35.60;40.20;;;;;;4993162;28;20158;-88
2022/08/25 11:45:01;;;;;;;3.42;2.50;;;36.00;40.20;;;;;;4980055;28;20037;-89
2022/08/25 11:47:56;;;;;;;4.60;2.80;;;36.20;39.30;;;;;;4986130;28;20111;-88
2022/08/25 11:50:36;;;;;;;5.25;2.70;;;36.30;39.10;;;;;;4979053;28;20046;-90
2022/08/25 11:53:15;;;;;;;3.67;2.38;;;36.60;40.70;;;;;;4981701;28;20052;-90
2022/08/25 11:55:54;;;;;;;5.55;3.08;;;36.60;39.00;;;;;;4982551;28;20040;-89
2022/08/25 11:58:38;;;;;;;2.90;2.60;;;36.60;38.60;;;;;;4983600;28;20041;-87
2022/08/25 12:01:37;;;;;;;2.92;2.38;;;36.90;37.10;;;;;;4980121;28;20034;-89
2022/08/25 12:04:32;;;;;;;5.47;2.40;;;36.90;38.10;;;;;;5006505;28;20476;-89
2022/08/25 12:07:12;;;;;;;2.67;2.47;;;37.20;38.90;;;;;;4996003;28;20037;-89
2022/08/25 12:09:52;;;;;;;3.25;2.72;;;37.50;38.70;;;;;;4979820;28;20065;-89
2022/08/25 12:12:37;;;;;;;5.00;2.70;;;37.60;39.00;;;;;;4986616;28;20030;-89
2022/08/25 12:15:22;;;;;;;2.50;2.30;;;37.50;37.60;;;;;;4980445;28;20627;-89
2022/08/25 12:18:21;;;;;;;2.60;2.40;;;37.60;39.70;;;;;;4983896;28;20460;-90
2022/08/25 12:20:56;;;;;;;4.28;2.70;;;38.00;35.70;;;;;;4974745;28;20141;-89
2022/08/25 12:23:37;;;;;;;3.65;2.60;;;37.70;37.20;;;;;;4978154;28;20042;-89
2022/08/25 12:26:07;;;;;;;3.83;2.83;;;37.70;36.80;;;;;;4979648;28;20073;-90
2022/08/25 12:28:36;;;;;;;3.13;2.53;;;37.90;38.20;;;;;;4987672;28;20053;-89
2022/08/25 12:31:46;;;;;;;2.90;2.70;;;38.10;36.40;;;;;;4983985;28;20041;-90
2022/08/25 12:34:38;;;;;;;4.03;2.60;;;38.50;36.50;;;;;;4998252;28;20523;-90
2022/08/25 12:37:26;;;;;;;3.42;2.50;;;38.20;34.90;;;;;;4981626;28;20124;-89
2022/08/25 12:51:37;;;;;;;3.03;2.55;;;38.50;35.90;;;;;;4952242;28;20389;-88
2022/08/25 12:55:14;;;;;;;;;;;;;;;;;;;;;
2022/08/25 12:58:44;;;;;;;3.67;2.88;;;39.00;36.00;;;;;;5008850;28;20102;-90
2022/08/25 13:05:09;;;;;;;4.22;3.10;;;39.60;36.20;;;;;;5028071;22;20053;-29
2022/08/25 13:07:58;;;;;;;5.03;3.30;;;39.80;36.50;;;;;;5027061;28;20648;-28
2022/08/25 13:10:45;;;;;;;3.10;2.78;;;39.80;35.50;;;;;;4995623;28;20466;-33
2022/08/25 13:13:35;;;;;;;4.25;3.22;;;40.20;33.10;;;;;;5003419;28;20117;-30
2022/08/25 13:16:08;;;;;;;5.68;3.33;;;39.60;35.50;;;;;;4991749;28;20042;-28
2022/08/25 13:18:37;;;;;;;3.38;2.95;;;39.80;35.50;;;;;;5004526;28;20030;-29
2022/08/25 13:21:21;;;;;;;5.20;2.53;;;39.90;34.20;;;;;;5001610;28;20045;-29
2022/08/25 13:23:53;;;;;;;3.83;2.75;;;40.20;33.90;;;;;;5011788;28;20037;-29
2022/08/25 13:26:29;;;;;;;3.00;2.78;;;40.60;32.60;;;;;;4998391;28;20085;-29
2022/08/25 13:29:11;;;;;;;2.90;2.65;;;40.20;33.40;;;;;;5016628;28;20053;-29
2022/08/25 13:31:54;;;;;;;3.35;2.92;;;40.30;32.40;;;;;;5000141;28;20045;-29
2022/08/25 13:34:22;;;;;;;5.00;3.45;;;40.30;34.40;;;;;;5004932;28;20034;-28
2022/08/25 13:39:34;;;;;;;4.47;3.03;;;41.00;35.00;;;;;;5003147;28;20589;-29
2022/08/25 13:42:04;;;;;;;3.17;2.90;;;40.60;33.10;;;;;;5001170;28;20035;-30
2022/08/25 13:44:34;;;;;;;3.20;2.63;;;40.50;32.70;;;;;;5002817;28;20122;-31
2022/08/25 13:47:11;;;;;;;3.67;3.05;;;40.00;32.10;;;;;;4998229;28;20128;-31
2022/08/25 13:49:45;;;;;;;5.30;3.00;;;40.10;34.90;;;;;;4976480;28;20130;-30
2022/08/25 13:52:27;;;;;;;4.05;2.83;;;40.40;33.20;;;;;;5004674;28;20042;-30
2022/08/25 13:55:00;;;;;;;6.35;2.90;;;40.30;33.80;;;;;;4998902;28;20041;-29
2022/08/25 13:57:29;;;;;;;4.97;3.28;;;40.90;32.80;;;;;;4984792;28;20403;-29
2022/08/25 14:00:06;;;;;;;3.70;3.13;;;41.30;32.40;;;;;;5004865;28;20044;-30
2022/08/25 14:02:46;;;;;;;2.97;2.78;;;41.30;32.80;;;;;;4983277;28;20097;-29
2022/08/25 14:05:16;;;;;;;3.15;2.90;;;41.40;32.10;;;;;;4979853;28;20038;-30
2022/08/25 14:07:55;;;;;;;3.08;2.88;;;41.20;31.60;;;;;;5010996;28;20037;-30
2022/08/25 14:10:32;;;;;;;4.60;3.10;;;41.30;32.50;;;;;;4996667;28;20038;-29
2022/08/25 14:13:12;;;;;;;3.70;2.70;;;41.50;30.30;;;;;;4988726;28;20516;-30
2022/08/25 14:15:39;;;;;;;2.92;2.63;;;41.00;31.10;;;;;;5003626;28;20045;-31
2022/08/25 14:18:29;;;;;;;4.03;2.92;;;40.90;32.40;;;;;;4991423;28;20061;-30
2022/08/25 14:20:56;;;;;;;3.78;2.80;;;41.20;31.40;;;;;;4987782;28;20343;-28
2022/08/25 14:23:26;;;;;;;4.45;2.40;;;41.10;30.50;;;;;;4994306;28;20037;-30
2022/08/25 14:25:55;;;;;;;4.22;2.90;;;41.20;31.10;;;;;;5002488;28;20038;-31